createdAt,value
2023-04-07T00:02:29.001Z,8.40
2023-04-07T00:05:30.672Z,9.82
2023-04-07T00:08:32.070Z,11.00
2023-04-07T00:11:33.510Z,8.93
2023-04-07T00:14:34.933Z,8.33
2023-04-07T00:17:36.474Z,8.97
2023-04-07T00:20:38.018Z,7.33
2023-04-07T00:23:39.465Z,11.53
2023-04-07T00:26:40.949Z,8.57
2023-04-07T00:29:43.764Z,9.03
2023-04-07T00:32:45.538Z,8.10
2023-04-07T00:35:47.083Z,7.70
2023-04-07T00:38:48.650Z,7.95
2023-04-07T00:41:51.266Z,7.43
2023-04-07T00:47:54.161Z,8.30
2023-04-07T00:50:55.629Z,7.93
2023-04-07T00:53:57.485Z,8.80
2023-04-07T00:56:59.186Z,10.07
2023-04-07T01:00:00.744Z,8.27
2023-04-07T01:03:20.977Z,8.38
2023-04-07T01:06:27.320Z,6.78
2023-04-07T01:09:44.459Z,7.50
2023-04-07T01:12:57.798Z,8.65
2023-04-07T01:16:05.759Z,8.15
2023-04-07T01:19:21.184Z,8.05
2023-04-07T01:22:43.416Z,8.45
2023-04-07T01:26:12.344Z,7.30
2023-04-07T01:29:26.045Z,7.93
2023-04-07T01:32:28.037Z,8.88
2023-04-07T01:35:32.207Z,7.47
2023-04-07T01:38:33.919Z,7.50
2023-04-07T01:41:37.572Z,8.57
2023-04-07T01:44:39.401Z,6.53
2023-04-07T01:47:41.283Z,7.10
2023-04-07T01:50:45.814Z,6.53
2023-04-07T01:53:48.867Z,9.55
2023-04-07T01:56:50.812Z,9.70
2023-04-07T01:59:53.676Z,7.35
2023-04-07T02:03:07.631Z,7.80
2023-04-07T02:06:12.685Z,8.07
2023-04-07T02:09:17.868Z,7.65
2023-04-07T02:12:20.457Z,8.95
2023-04-07T02:15:36.726Z,8.07
2023-04-07T02:18:38.781Z,7.57
2023-04-07T02:21:41.239Z,11.18
2023-04-07T02:27:47.237Z,7.80
2023-04-07T02:30:48.654Z,6.70
2023-04-07T02:33:50.294Z,8.95
2023-04-07T02:36:51.926Z,8.05
2023-04-07T02:39:53.400Z,8.73
2023-04-07T02:42:55.247Z,7.20
2023-04-07T02:45:57.661Z,8.10
2023-04-07T02:48:59.160Z,8.73
2023-04-07T02:52:00.755Z,9.63
2023-04-07T02:55:02.564Z,8.20
2023-04-07T02:58:04.727Z,9.70
2023-04-07T03:01:13.781Z,9.75
2023-04-07T03:04:15.898Z,8.53
2023-04-07T03:07:18.263Z,9.40
2023-04-07T03:10:19.822Z,7.88
2023-04-07T03:13:21.706Z,9.38
2023-04-07T03:16:23.259Z,7.35
2023-04-07T03:19:46.932Z,7.18
2023-04-07T03:22:48.437Z,7.90
2023-04-07T03:25:57.906Z,6.90
2023-04-07T03:29:04.197Z,7.25
2023-04-07T03:32:06.174Z,6.70
2023-04-07T03:35:08.471Z,9.52
2023-04-07T03:38:09.929Z,7.78
2023-04-07T03:41:11.533Z,8.13
2023-04-07T03:44:13.068Z,8.10
2023-04-07T03:50:16.960Z,7.45
2023-04-07T03:53:43.069Z,7.72
2023-04-07T03:57:03.274Z,7.25
2023-04-07T04:00:09.527Z,9.95
2023-04-07T04:03:33.299Z,9.38
2023-04-07T04:06:57.757Z,8.18
2023-04-07T04:10:20.952Z,8.18
2023-04-07T04:13:25.097Z,9.55
2023-04-07T04:16:26.918Z,9.07
2023-04-07T04:19:32.241Z,8.60
2023-04-07T04:22:38.388Z,8.55
2023-04-07T04:25:40.851Z,7.63
2023-04-07T04:28:45.471Z,7.65
2023-04-07T04:31:48.520Z,8.05
2023-04-07T04:34:50.076Z,8.60
2023-04-07T04:37:52.771Z,8.50
2023-04-07T04:40:54.355Z,8.70
2023-04-07T04:44:01.517Z,9.63
2023-04-07T04:47:06.429Z,8.15
2023-04-07T04:53:12.645Z,8.27
2023-04-07T04:56:21.489Z,7.30
2023-04-07T04:59:24.468Z,7.88
2023-04-07T05:02:31.826Z,10.23
2023-04-07T05:05:33.612Z,7.40
2023-04-07T05:08:36.564Z,8.05
2023-04-07T05:11:41.092Z,9.55
2023-04-07T05:14:42.662Z,9.95
2023-04-07T05:17:44.299Z,8.55
2023-04-07T05:20:49.332Z,9.45
2023-04-07T05:23:51.744Z,9.43
2023-04-07T05:26:57.034Z,8.80
2023-04-07T05:29:59.210Z,9.65
2023-04-07T05:33:05.892Z,11.10
2023-04-07T05:36:16.003Z,10.80
2023-04-07T05:39:17.632Z,10.25
2023-04-07T05:42:21.094Z,9.38
2023-04-07T05:45:26.229Z,10.10
2023-04-07T05:48:27.799Z,9.68
2023-04-07T05:51:31.382Z,9.48
2023-04-07T05:54:36.183Z,11.02
2023-04-07T05:57:40.366Z,12.57
2023-04-07T06:00:41.903Z,10.77
2023-04-07T06:03:48.786Z,10.25
2023-04-07T06:06:59.233Z,9.50
2023-04-07T06:10:00.660Z,11.07
2023-04-07T06:13:02.070Z,11.00
2023-04-07T06:16:03.532Z,9.50
2023-04-07T06:19:07.144Z,9.27
2023-04-07T06:22:08.750Z,9.65
2023-04-07T06:25:10.420Z,11.37
2023-04-07T06:28:12.482Z,9.55
2023-04-07T06:31:13.930Z,9.75
2023-04-07T06:34:16.494Z,10.20
2023-04-07T06:37:18.218Z,10.60
2023-04-07T06:40:19.705Z,10.35
2023-04-07T06:43:21.250Z,12.37
2023-04-07T06:46:28.751Z,10.23
2023-04-07T06:49:30.275Z,9.93
2023-04-07T06:52:31.943Z,10.00
2023-04-07T06:55:33.419Z,11.95
2023-04-07T06:58:35.602Z,12.33
2023-04-07T07:01:37.897Z,10.07
2023-04-07T07:04:39.514Z,10.38
2023-04-07T07:07:41.051Z,9.83
2023-04-07T07:10:42.510Z,9.18
2023-04-07T07:13:45.026Z,15.67
2023-04-07T07:16:46.496Z,12.73
2023-04-07T07:19:47.927Z,14.40
2023-04-07T07:22:50.932Z,14.70
2023-04-07T07:25:52.510Z,13.15
2023-04-07T07:28:54.162Z,11.45
2023-04-07T07:31:56.316Z,12.35
2023-04-07T07:34:58.855Z,12.07
2023-04-07T07:38:01.013Z,11.60
2023-04-07T07:41:02.684Z,15.30
2023-04-07T07:44:04.401Z,13.57
2023-04-07T07:47:05.865Z,15.50
2023-04-07T07:50:07.513Z,15.30
2023-04-07T07:53:08.918Z,21.25
2023-04-07T07:56:10.559Z,16.03
2023-04-07T07:59:12.146Z,17.88
2023-04-07T08:02:13.895Z,22.67
2023-04-07T08:05:15.484Z,14.82
2023-04-07T08:08:16.930Z,16.73
2023-04-07T08:11:18.389Z,14.87
2023-04-07T08:14:20.177Z,14.00
2023-04-07T08:17:21.647Z,13.98
2023-04-07T08:20:23.689Z,13.93
2023-04-07T08:23:25.860Z,13.63
2023-04-07T08:26:27.664Z,15.95
2023-04-07T08:29:30.541Z,14.77
2023-04-07T08:32:41.045Z,15.02
2023-04-07T08:35:42.634Z,17.15
2023-04-07T08:38:44.263Z,14.85
2023-04-07T08:41:47.184Z,13.80
2023-04-07T08:44:51.606Z,14.55
2023-04-07T08:47:57.234Z,13.35
2023-04-07T08:51:04.269Z,14.15
2023-04-07T08:54:12.626Z,14.05
2023-04-07T08:57:16.549Z,15.90
2023-04-07T09:00:18.522Z,12.90
2023-04-07T09:03:21.494Z,14.00
2023-04-07T09:06:23.200Z,13.98
2023-04-07T09:09:24.619Z,13.52
2023-04-07T09:12:28.077Z,15.98
2023-04-07T09:15:32.861Z,16.98
2023-04-07T09:18:34.358Z,16.38
2023-04-07T09:21:52.819Z,14.73
2023-04-07T09:25:13.510Z,17.05
2023-04-07T09:28:14.937Z,17.73
2023-04-07T09:31:16.669Z,17.83
2023-04-07T09:34:26.231Z,16.73
2023-04-07T09:37:27.766Z,17.58
2023-04-07T09:40:29.442Z,15.37
2023-04-07T09:43:31.659Z,18.65
2023-04-07T09:49:49.140Z,18.25
2023-04-07T09:52:52.457Z,16.75
2023-04-07T09:55:54.194Z,21.35
2023-04-07T09:58:56.778Z,20.63
2023-04-07T10:01:59.077Z,19.05
2023-04-07T10:05:01.068Z,18.88
2023-04-07T10:08:03.462Z,15.10
2023-04-07T10:14:09.940Z,19.00
2023-04-07T10:17:12.206Z,21.38
2023-04-07T10:23:22.081Z,17.92
2023-04-07T10:26:28.290Z,20.58
2023-04-07T10:29:34.550Z,22.80
2023-04-07T10:32:49.627Z,21.50
2023-04-07T10:36:07.486Z,21.15
2023-04-07T10:39:09.073Z,21.77
2023-04-07T10:42:41.470Z,25.73
2023-04-07T10:45:45.833Z,17.27
2023-04-07T10:49:08.530Z,19.08
2023-04-07T10:52:13.156Z,17.10
2023-04-07T10:55:35.177Z,18.98
2023-04-07T10:58:37.308Z,16.02
2023-04-07T11:01:39.180Z,18.23
2023-04-07T11:04:45.502Z,22.50
2023-04-07T11:07:50.266Z,21.98
2023-04-07T11:10:51.736Z,20.17
2023-04-07T11:13:53.189Z,21.60
2023-04-07T11:16:54.852Z,19.57
2023-04-07T11:19:57.509Z,20.77
2023-04-07T11:23:00.224Z,19.52
2023-04-07T11:26:02.947Z,19.88
2023-04-07T11:29:04.624Z,20.70
2023-04-07T11:32:06.275Z,19.52
2023-04-07T11:35:08.352Z,20.40
2023-04-07T11:38:10.311Z,22.38
2023-04-07T11:41:13.647Z,24.35
2023-04-07T11:44:15.425Z,24.90
2023-04-07T11:47:16.992Z,22.30
2023-04-07T11:50:38.844Z,22.47
2023-04-07T11:53:41.014Z,23.60
2023-04-07T11:56:44.572Z,25.52
2023-04-07T11:59:46.006Z,21.10
2023-04-07T12:02:47.743Z,21.77
2023-04-07T12:05:49.493Z,20.50
2023-04-07T12:08:50.960Z,27.65
2023-04-07T12:11:52.474Z,18.97
2023-04-07T12:14:54.571Z,20.73
2023-04-07T12:17:56.119Z,23.35
2023-04-07T12:20:58.993Z,19.90
2023-04-07T12:24:00.476Z,20.30
2023-04-07T12:27:02.988Z,19.17
2023-04-07T12:30:04.787Z,18.60
2023-04-07T12:33:06.319Z,16.05
2023-04-07T12:36:07.924Z,17.73
2023-04-07T12:39:09.634Z,16.83
2023-04-07T12:42:11.951Z,16.50
2023-04-07T12:45:13.503Z,13.15
2023-04-07T12:48:16.221Z,12.43
2023-04-07T12:51:17.837Z,10.55
2023-04-07T12:54:19.448Z,15.95
2023-04-07T12:57:20.991Z,19.15
2023-04-07T13:00:22.612Z,15.88
2023-04-07T13:03:24.218Z,18.88
2023-04-07T13:06:25.887Z,18.75
2023-04-07T13:09:27.410Z,19.42
2023-04-07T13:12:28.868Z,17.17
2023-04-07T13:15:30.417Z,19.90
2023-04-07T13:18:31.850Z,15.38
2023-04-07T13:24:37.657Z,16.05
2023-04-07T13:27:39.068Z,14.82
2023-04-07T13:30:41.536Z,13.20
2023-04-07T13:33:43.108Z,14.02
2023-04-07T13:36:44.528Z,13.02
2023-04-07T13:39:46.183Z,10.77
2023-04-07T13:42:47.557Z,15.57
2023-04-07T13:45:49.254Z,10.67
2023-04-07T13:48:51.032Z,10.95
2023-04-07T13:51:52.541Z,9.13
2023-04-07T13:54:54.198Z,12.02
2023-04-07T13:57:55.631Z,12.00
2023-04-07T14:00:57.272Z,11.97
2023-04-07T14:04:00.854Z,10.38
2023-04-07T14:07:03.523Z,8.13
2023-04-07T14:13:06.906Z,10.20
2023-04-07T14:16:08.409Z,10.85
2023-04-07T14:19:09.935Z,7.97
2023-04-07T14:22:11.389Z,8.05
2023-04-07T14:25:12.810Z,8.33
2023-04-07T14:28:14.316Z,8.02
2023-04-07T14:31:16.292Z,7.93
2023-04-07T14:34:17.780Z,8.15
2023-04-07T14:37:24.039Z,9.87
2023-04-07T14:40:26.003Z,8.02
2023-04-07T14:43:27.796Z,8.50
2023-04-07T14:46:29.306Z,6.97
2023-04-07T14:49:30.771Z,7.63
2023-04-07T14:52:32.383Z,7.90
2023-04-07T14:55:34.360Z,7.32
2023-04-07T14:58:37.380Z,8.10
2023-04-07T15:01:39.817Z,7.13
2023-04-07T15:04:41.471Z,7.75
2023-04-07T15:07:48.452Z,7.22
2023-04-07T15:10:49.923Z,6.03
2023-04-07T15:13:51.626Z,5.82
2023-04-07T15:16:53.250Z,7.18
2023-04-07T15:19:54.924Z,6.28
2023-04-07T15:22:56.860Z,5.90
2023-04-07T15:25:58.311Z,7.28
2023-04-07T15:29:04.813Z,7.75
2023-04-07T15:32:06.436Z,6.95
2023-04-07T15:35:08.297Z,6.50
2023-04-07T15:38:10.057Z,6.90
2023-04-07T15:41:16.244Z,7.20
2023-04-07T15:44:21.062Z,7.03
2023-04-07T15:47:22.568Z,5.82
2023-04-07T15:50:24.939Z,6.70
2023-04-07T15:53:26.456Z,6.72
2023-04-07T15:56:27.956Z,5.88
2023-04-07T15:59:30.934Z,6.28
2023-04-07T16:02:32.679Z,7.22
2023-04-07T16:05:34.311Z,7.80
2023-04-07T16:08:35.729Z,7.07
2023-04-07T16:11:37.133Z,6.73
2023-04-07T16:14:38.619Z,7.50
2023-04-07T16:17:43.044Z,7.47
2023-04-07T16:20:44.506Z,7.57
2023-04-07T16:23:46.271Z,7.07
2023-04-07T16:26:50.384Z,7.10
2023-04-07T16:29:51.857Z,5.28
2023-04-07T16:32:53.352Z,6.17
2023-04-07T16:35:54.999Z,6.10
2023-04-07T16:38:57.586Z,5.78
2023-04-07T16:41:59.025Z,6.00
2023-04-07T16:45:01.367Z,7.93
2023-04-07T16:51:04.503Z,7.00
2023-04-07T16:54:05.981Z,6.78
2023-04-07T16:57:07.537Z,6.23
2023-04-07T17:00:09.603Z,6.68
2023-04-07T17:03:11.109Z,6.45
2023-04-07T17:06:12.688Z,5.38
2023-04-07T17:09:17.569Z,4.93
2023-04-07T17:12:19.033Z,4.35
2023-04-07T17:15:20.701Z,3.70
2023-04-07T17:18:22.133Z,3.33
2023-04-07T17:21:23.656Z,4.77
2023-04-07T17:24:25.068Z,4.43
2023-04-07T17:27:26.750Z,7.00
2023-04-07T17:30:28.308Z,4.40
2023-04-07T17:33:30.694Z,5.47
2023-04-07T17:36:33.141Z,4.85
2023-04-07T17:39:34.559Z,6.60
2023-04-07T17:42:37.156Z,6.77
2023-04-07T17:45:38.611Z,5.00
2023-04-07T17:48:40.046Z,5.17
2023-04-07T17:51:42.459Z,7.70
2023-04-07T17:54:43.936Z,11.68
2023-04-07T17:57:45.698Z,6.23
2023-04-07T18:00:47.373Z,6.00
2023-04-07T18:03:49.674Z,7.05
2023-04-07T18:06:51.567Z,5.95
2023-04-07T18:09:53.162Z,5.88
2023-04-07T18:12:54.953Z,6.70
2023-04-07T18:15:56.408Z,6.00
2023-04-07T18:18:57.958Z,6.33
2023-04-07T18:22:00.763Z,6.65
2023-04-07T18:25:02.305Z,5.68
2023-04-07T18:28:04.012Z,7.07
2023-04-07T18:31:07.670Z,6.03
2023-04-07T18:34:10.430Z,8.35
2023-04-07T18:37:11.908Z,6.80
2023-04-07T18:40:13.516Z,7.20
2023-04-07T18:43:16.902Z,7.50
2023-04-07T18:46:18.794Z,6.53
2023-04-07T18:49:20.376Z,6.22
2023-04-07T18:52:21.939Z,7.47
2023-04-07T18:55:23.324Z,6.57
2023-04-07T18:58:24.792Z,6.60
2023-04-07T19:01:27.144Z,6.20
2023-04-07T19:04:28.683Z,6.63
2023-04-07T19:07:30.364Z,9.10
2023-04-07T19:10:31.768Z,7.70
2023-04-07T19:13:33.191Z,6.37
2023-04-07T19:16:34.995Z,7.33
2023-04-07T19:19:36.451Z,6.82
2023-04-07T19:22:37.861Z,7.70
2023-04-07T19:25:40.197Z,7.03
2023-04-07T19:31:43.722Z,6.72
2023-04-07T19:34:45.308Z,7.05
2023-04-07T19:37:48.136Z,7.05
2023-04-07T19:40:49.809Z,6.55
2023-04-07T19:43:51.773Z,7.07
2023-04-07T19:46:53.431Z,6.80
2023-04-07T19:49:54.851Z,7.93
2023-04-07T19:52:56.334Z,6.57
2023-04-07T19:55:57.797Z,7.73
2023-04-07T19:58:59.350Z,7.55
2023-04-07T20:02:00.957Z,8.20
2023-04-07T20:05:03.344Z,8.07
2023-04-07T20:11:11.055Z,8.65
2023-04-07T20:14:12.487Z,8.50
2023-04-07T20:17:13.891Z,10.67
2023-04-07T20:20:15.650Z,9.40
2023-04-07T20:23:21.960Z,9.68
2023-04-07T20:26:23.462Z,8.48
2023-04-07T20:29:25.115Z,11.30
2023-04-07T20:32:27.007Z,10.35
2023-04-07T20:35:28.551Z,9.40
2023-04-07T20:38:30.275Z,9.15
2023-04-07T20:41:31.876Z,8.85
2023-04-07T20:44:33.367Z,10.95
2023-04-07T20:47:36.687Z,9.57
2023-04-07T20:50:38.389Z,9.05
2023-04-07T20:53:40.612Z,9.77
2023-04-07T20:59:46.002Z,9.45
2023-04-07T21:02:48.507Z,9.60
2023-04-07T21:05:50.309Z,9.13
2023-04-07T21:08:51.831Z,10.65
2023-04-07T21:11:53.656Z,9.15
2023-04-07T21:14:55.206Z,10.25
2023-04-07T21:17:56.640Z,9.70
2023-04-07T21:20:59.503Z,9.47
2023-04-07T21:24:01.244Z,9.77
2023-04-07T21:27:02.847Z,9.68
2023-04-07T21:30:06.338Z,9.95
2023-04-07T21:33:07.827Z,10.15
2023-04-07T21:36:09.253Z,9.13
2023-04-07T21:39:10.706Z,9.50
2023-04-07T21:42:12.485Z,10.30
2023-04-07T21:45:14.941Z,10.60
2023-04-07T21:48:20.644Z,10.25
2023-04-07T21:51:22.492Z,10.02
2023-04-07T21:54:24.992Z,11.73
2023-04-07T21:57:26.479Z,9.52
2023-04-07T22:00:27.896Z,12.07
2023-04-07T22:03:29.632Z,10.63
2023-04-07T22:06:31.364Z,10.45
2023-04-07T22:09:32.818Z,12.00
2023-04-07T22:12:34.264Z,14.07
2023-04-07T22:15:35.724Z,12.90
2023-04-07T22:18:37.154Z,15.47
2023-04-07T22:21:38.614Z,12.77
2023-04-07T22:24:40.225Z,14.20
2023-04-07T22:27:41.653Z,16.13
2023-04-07T22:30:43.119Z,17.77
2023-04-07T22:33:44.510Z,14.57
2023-04-07T22:36:46.248Z,15.20
2023-04-07T22:39:47.676Z,15.77
2023-04-07T22:42:49.087Z,14.13
2023-04-07T22:45:51.154Z,13.18
2023-04-07T22:48:52.613Z,16.10
2023-04-07T22:51:55.217Z,13.90
2023-04-07T22:54:57.796Z,11.40
2023-04-07T22:57:59.312Z,12.70
2023-04-07T23:01:01.346Z,10.33
2023-04-07T23:04:02.780Z,12.50
2023-04-07T23:07:04.205Z,11.53
2023-04-07T23:10:07.614Z,11.33
2023-04-07T23:13:09.108Z,10.65
2023-04-07T23:16:14.280Z,12.73
2023-04-07T23:19:15.868Z,12.52
2023-04-07T23:22:17.341Z,10.90
2023-04-07T23:25:18.754Z,11.77
2023-04-07T23:28:20.409Z,13.73
2023-04-07T23:31:21.972Z,13.98
2023-04-07T23:34:23.410Z,12.05
2023-04-07T23:37:24.830Z,13.10
2023-04-07T23:40:26.666Z,14.27
2023-04-07T23:43:28.097Z,15.65
2023-04-07T23:46:29.562Z,14.97
2023-04-07T23:49:31.310Z,15.32
2023-04-07T23:52:32.733Z,15.25
2023-04-07T23:55:34.185Z,15.57
2023-04-07T23:58:35.637Z,16.17
